createdAt,value
2017-10-20T00:01:27.932Z,99378.27
2017-10-20T00:03:54.216Z,99374.16
2017-10-20T00:06:20.553Z,99376.89
2017-10-20T00:08:46.875Z,99376.72
2017-10-20T00:11:13.214Z,99379.30
2017-10-20T00:13:39.557Z,99374.92
2017-10-20T00:16:05.860Z,99374.30
2017-10-20T00:18:32.205Z,99372.33
2017-10-20T00:20:58.522Z,99374.97
2017-10-20T00:23:24.870Z,99378.00
2017-10-20T00:25:51.199Z,99377.59
2017-10-20T00:28:17.651Z,99375.61
2017-10-20T00:30:43.977Z,99375.37
2017-10-20T00:33:10.304Z,99381.52
2017-10-20T00:35:36.642Z,99377.59
2017-10-20T00:38:02.903Z,99377.55
2017-10-20T00:40:29.190Z,99381.33
2017-10-20T00:42:55.528Z,99378.52
2017-10-20T00:45:21.857Z,99378.02
2017-10-20T00:47:48.201Z,99370.94
2017-10-20T00:50:14.518Z,99375.58
2017-10-20T00:52:40.862Z,99379.33
2017-10-20T00:55:07.295Z,99377.64
2017-10-20T00:57:33.623Z,99376.35
2017-10-20T00:59:59.934Z,99373.44
2017-10-20T01:02:26.274Z,99378.34
2017-10-20T01:04:52.638Z,99374.61
2017-10-20T01:07:18.954Z,99378.17
2017-10-20T01:09:45.278Z,99377.37
2017-10-20T01:12:11.668Z,99374.73
2017-10-20T01:14:37.945Z,99375.14
2017-10-20T01:17:04.288Z,99373.58
2017-10-20T01:19:30.609Z,99377.98
2017-10-20T01:21:56.923Z,99382.16
2017-10-20T01:24:23.163Z,99380.19
2017-10-20T01:26:49.516Z,99385.69
2017-10-20T01:29:15.836Z,99386.55
2017-10-20T01:31:42.194Z,99387.33
2017-10-20T01:34:08.491Z,99388.29
2017-10-20T01:36:34.837Z,99384.92
2017-10-20T01:39:01.184Z,99377.94
2017-10-20T01:41:27.476Z,99379.44
2017-10-20T01:43:53.835Z,99385.16
2017-10-20T01:46:20.149Z,99383.29
2017-10-20T01:48:46.488Z,99390.69
2017-10-20T01:51:12.816Z,99397.04
2017-10-20T01:53:39.149Z,99392.59
2017-10-20T01:56:05.490Z,99389.48
2017-10-20T01:58:31.829Z,99391.48
2017-10-20T02:00:58.157Z,99396.59
2017-10-20T02:03:24.481Z,99393.25
2017-10-20T02:05:50.807Z,99396.16
2017-10-20T02:08:17.142Z,99391.52
2017-10-20T02:10:43.483Z,99395.53
2017-10-20T02:13:09.815Z,99396.92
2017-10-20T02:15:36.164Z,99395.28
2017-10-20T02:18:02.499Z,99396.27
2017-10-20T02:20:28.801Z,99393.64
2017-10-20T02:22:55.138Z,99394.77
2017-10-20T02:25:21.479Z,99387.88
2017-10-20T02:27:47.827Z,99390.70
2017-10-20T02:30:14.124Z,99395.64
2017-10-20T02:32:40.473Z,99399.55
2017-10-20T02:35:06.810Z,99400.20
2017-10-20T02:37:33.117Z,99402.84
2017-10-20T02:39:59.462Z,99397.50
2017-10-20T02:42:25.788Z,99404.36
2017-10-20T02:44:52.117Z,99395.09
2017-10-20T02:47:18.473Z,99395.09
2017-10-20T02:49:45.417Z,99401.50
2017-10-20T02:52:11.747Z,99392.98
2017-10-20T02:54:38.038Z,99400.14
2017-10-20T02:57:04.459Z,99392.23
2017-10-20T02:59:30.748Z,99397.70
2017-10-20T03:01:57.085Z,99404.91
2017-10-20T03:04:23.397Z,99408.19
2017-10-20T03:06:49.742Z,99403.05
2017-10-20T03:09:16.054Z,99408.81
2017-10-20T03:11:42.307Z,99405.34
2017-10-20T03:14:08.628Z,99410.50
2017-10-20T03:16:34.952Z,99412.91
2017-10-20T03:19:01.301Z,99415.72
2017-10-20T03:21:27.613Z,99418.56
2017-10-20T03:23:53.942Z,99416.37
2017-10-20T03:26:20.295Z,99417.23
2017-10-20T03:28:46.609Z,99409.81
2017-10-20T03:31:12.969Z,99411.63
2017-10-20T03:33:39.271Z,99412.61
2017-10-20T03:36:05.628Z,99408.83
2017-10-20T03:38:31.952Z,99409.72
2017-10-20T03:40:58.282Z,99412.45
2017-10-20T03:43:24.618Z,99410.53
2017-10-20T03:45:50.939Z,99407.27
2017-10-20T03:48:17.284Z,99411.72
2017-10-20T03:50:43.613Z,99409.50
2017-10-20T03:53:09.962Z,99409.08
2017-10-20T03:55:36.263Z,99411.96
2017-10-20T03:58:02.619Z,99412.58
2017-10-20T04:00:28.944Z,99419.46
2017-10-20T04:02:55.265Z,99423.50
2017-10-20T04:05:21.609Z,99427.56
2017-10-20T04:07:47.939Z,99419.30
2017-10-20T04:10:14.253Z,99424.10
2017-10-20T04:12:40.595Z,99424.65
2017-10-20T04:15:06.948Z,99418.47
2017-10-20T04:17:33.297Z,99416.59
2017-10-20T04:19:59.600Z,99414.17
2017-10-20T04:22:25.887Z,99411.58
2017-10-20T04:24:52.142Z,99411.12
2017-10-20T04:27:18.498Z,99413.53
2017-10-20T04:29:44.831Z,99410.62
2017-10-20T04:32:11.162Z,99404.92
2017-10-20T04:34:37.491Z,99413.56
2017-10-20T04:37:04.680Z,99412.50
2017-10-20T04:39:30.986Z,99416.08
2017-10-20T04:41:57.296Z,99418.64
2017-10-20T04:44:23.654Z,99424.65
2017-10-20T04:46:50.074Z,99428.54
2017-10-20T04:49:16.408Z,99430.00
2017-10-20T04:51:42.743Z,99434.28
2017-10-20T04:54:09.061Z,99429.66
2017-10-20T04:56:35.402Z,99427.55
2017-10-20T04:59:01.731Z,99428.35
2017-10-20T05:01:27.957Z,99428.59
2017-10-20T05:03:54.307Z,99425.56
2017-10-20T05:06:20.541Z,99429.18
2017-10-20T05:08:46.803Z,99430.18
2017-10-20T05:11:13.160Z,99427.95
2017-10-20T05:13:39.420Z,99429.00
2017-10-20T05:16:05.750Z,99427.13
2017-10-20T05:18:32.087Z,99426.12
2017-10-20T05:20:58.407Z,99427.06
2017-10-20T05:23:25.407Z,99435.92
2017-10-20T05:25:51.688Z,99431.00
2017-10-20T05:28:18.019Z,99431.20
2017-10-20T05:30:44.363Z,99431.74
2017-10-20T05:33:10.758Z,99436.34
2017-10-20T05:35:37.114Z,99439.53
2017-10-20T05:38:03.481Z,99432.79
2017-10-20T05:40:29.748Z,99427.94
2017-10-20T05:43:02.901Z,99430.39
2017-10-20T05:45:29.130Z,99424.11
2017-10-20T05:47:55.426Z,99422.41
2017-10-20T05:50:21.691Z,99420.98
2017-10-20T05:52:47.948Z,99432.18
2017-10-20T05:55:14.228Z,99432.42
2017-10-20T05:57:40.577Z,99439.53
2017-10-20T06:00:06.811Z,99433.82
2017-10-20T06:02:33.054Z,99431.18
2017-10-20T06:04:59.304Z,99441.12
2017-10-20T06:07:25.586Z,99444.13
2017-10-20T06:09:51.850Z,99441.33
2017-10-20T06:12:18.117Z,99435.49
2017-10-20T06:14:44.349Z,99440.44
2017-10-20T06:17:10.579Z,99444.69
2017-10-20T06:19:36.856Z,99444.99
2017-10-20T06:22:03.100Z,99449.78
2017-10-20T06:24:29.337Z,99452.33
2017-10-20T06:26:55.566Z,99454.97
2017-10-20T06:29:21.805Z,99450.25
2017-10-20T06:31:48.074Z,99453.16
2017-10-20T06:34:14.320Z,99454.44
2017-10-20T06:36:40.544Z,99446.83
2017-10-20T06:39:06.800Z,99446.67
2017-10-20T06:41:33.054Z,99447.12
2017-10-20T06:43:59.339Z,99441.81
2017-10-20T06:46:25.590Z,99444.46
2017-10-20T06:48:51.830Z,99449.48
2017-10-20T06:51:18.094Z,99446.59
2017-10-20T06:53:44.360Z,99442.08
2017-10-20T06:56:10.646Z,99454.16
2017-10-20T06:58:36.896Z,99444.00
2017-10-20T07:01:03.130Z,99447.00
2017-10-20T07:03:29.391Z,99445.25
2017-10-20T07:05:55.636Z,99446.34
2017-10-20T07:08:21.950Z,99440.00
2017-10-20T07:10:48.197Z,99442.05
2017-10-20T07:13:14.458Z,99440.17
2017-10-20T07:15:40.712Z,99443.48
2017-10-20T07:18:06.983Z,99442.20
2017-10-20T07:20:33.285Z,99440.21
2017-10-20T07:22:59.544Z,99438.55
2017-10-20T07:25:25.793Z,99433.89
2017-10-20T07:27:52.055Z,99433.06
2017-10-20T07:30:18.312Z,99434.35
2017-10-20T07:32:44.619Z,99432.45
2017-10-20T07:35:10.986Z,99425.73
2017-10-20T07:37:37.234Z,99427.13
2017-10-20T07:40:03.491Z,99424.39
2017-10-20T07:42:29.770Z,99427.58
2017-10-20T07:44:56.060Z,99422.97
2017-10-20T07:47:22.301Z,99423.64
2017-10-20T07:49:48.552Z,99419.66
2017-10-20T07:52:14.780Z,99420.97
2017-10-20T07:54:41.071Z,99418.03
2017-10-20T07:57:07.344Z,99413.91
2017-10-20T07:59:33.606Z,99411.92
2017-10-20T08:01:59.854Z,99414.95
2017-10-20T08:04:26.092Z,99408.94
2017-10-20T08:06:53.131Z,99413.50
2017-10-20T08:09:19.429Z,99414.61
2017-10-20T08:11:45.666Z,99412.48
2017-10-20T08:14:11.914Z,99417.58
2017-10-20T08:16:38.182Z,99410.88
2017-10-20T08:21:27.446Z,99410.31
2017-10-20T08:23:53.707Z,99409.50
2017-10-20T08:26:19.960Z,99404.44
2017-10-20T08:28:46.214Z,99406.13
2017-10-20T08:31:12.485Z,99407.34
2017-10-20T08:33:38.753Z,99404.75
2017-10-20T08:36:04.991Z,99405.72
2017-10-20T08:38:31.236Z,99406.25
2017-10-20T08:40:57.483Z,99405.30
2017-10-20T08:43:23.739Z,99399.30
2017-10-20T08:45:50.022Z,99399.87
2017-10-20T08:48:16.322Z,99400.63
2017-10-20T08:50:42.605Z,99411.54
2017-10-20T08:53:08.894Z,99396.80
2017-10-20T08:55:35.195Z,99397.34
2017-10-20T08:58:01.554Z,99397.24
2017-10-20T09:00:27.858Z,99394.81
2017-10-20T09:02:54.188Z,99390.48
2017-10-20T09:05:20.517Z,99390.13
2017-10-20T09:07:46.850Z,99385.55
2017-10-20T09:10:13.223Z,99388.59
2017-10-20T09:12:39.508Z,99386.70
2017-10-20T09:15:05.822Z,99391.40
2017-10-20T09:17:32.126Z,99389.80
2017-10-20T09:19:58.603Z,99384.41
2017-10-20T09:22:24.986Z,99390.14
2017-10-20T09:24:51.354Z,99382.10
2017-10-20T09:27:17.680Z,99379.69
2017-10-20T09:29:43.998Z,99380.23
2017-10-20T09:32:10.281Z,99381.48
2017-10-20T09:34:36.596Z,99371.47
2017-10-20T09:37:02.908Z,99367.69
2017-10-20T09:39:29.211Z,99371.37
2017-10-20T09:41:55.525Z,99362.20
2017-10-20T09:44:21.821Z,99365.64
2017-10-20T09:46:48.142Z,99359.23
2017-10-20T09:49:14.531Z,99359.08
2017-10-20T09:51:40.875Z,99355.13
2017-10-20T09:54:07.185Z,99358.14
2017-10-20T09:56:33.465Z,99353.50
2017-10-20T09:58:59.797Z,99357.02
2017-10-20T10:01:26.082Z,99353.34
2017-10-20T10:03:52.355Z,99351.91
2017-10-20T10:06:18.684Z,99348.61
2017-10-20T10:08:44.998Z,99346.83
2017-10-20T10:11:11.355Z,99349.96
2017-10-20T10:13:37.656Z,99343.91
2017-10-20T10:16:04.025Z,99339.63
2017-10-20T10:18:30.362Z,99338.04
2017-10-20T10:20:56.715Z,99337.25
2017-10-20T10:23:23.172Z,99330.97
2017-10-20T10:25:49.462Z,99329.09
2017-10-20T10:28:15.789Z,99330.34
2017-10-20T10:30:42.089Z,99337.16
2017-10-20T10:33:08.402Z,99327.22
2017-10-20T10:35:34.744Z,99325.69
2017-10-20T10:38:01.036Z,99320.44
2017-10-20T10:40:27.333Z,99311.72
2017-10-20T10:42:53.646Z,99320.13
2017-10-20T10:45:19.930Z,99306.99
2017-10-20T10:47:46.322Z,99315.61
2017-10-20T10:50:12.636Z,99315.61
2017-10-20T10:52:38.924Z,99312.63
2017-10-20T10:55:05.208Z,99309.78
2017-10-20T10:57:31.517Z,99304.72
2017-10-20T10:59:57.854Z,99306.20
2017-10-20T11:02:24.288Z,99303.08
2017-10-20T11:04:50.606Z,99297.89
2017-10-20T11:07:16.913Z,99300.93
2017-10-20T11:09:43.199Z,99298.27
2017-10-20T11:12:09.498Z,99293.53
2017-10-20T11:14:35.887Z,99295.66
2017-10-20T11:17:02.243Z,99291.42
2017-10-20T11:19:28.549Z,99296.91
2017-10-20T11:21:54.900Z,99291.86
2017-10-20T11:24:21.446Z,99287.48
2017-10-20T11:26:47.826Z,99280.12
2017-10-20T11:29:14.129Z,99280.49
2017-10-20T11:31:40.432Z,99286.42
2017-10-20T11:34:06.830Z,99279.00
2017-10-20T11:36:33.116Z,99281.28
2017-10-20T11:38:59.538Z,99280.88
2017-10-20T11:41:25.848Z,99275.34
2017-10-20T11:43:52.151Z,99275.25
2017-10-20T11:46:18.452Z,99271.59
2017-10-20T11:48:44.751Z,99273.92
2017-10-20T11:53:27.078Z,99273.05
2017-10-20T11:55:53.353Z,99270.68
2017-10-20T11:58:19.687Z,99273.77
2017-10-20T12:00:45.981Z,99266.34
2017-10-20T12:03:12.265Z,99265.27
2017-10-20T12:05:38.584Z,99268.48
2017-10-20T12:08:04.874Z,99269.45
2017-10-20T12:10:31.308Z,99270.53
2017-10-20T12:12:57.600Z,99271.71
2017-10-20T12:15:23.920Z,99263.66
2017-10-20T12:17:50.228Z,99266.64
2017-10-20T12:20:16.505Z,99259.08
2017-10-20T12:22:42.833Z,99263.90
2017-10-20T12:25:09.158Z,99265.86
2017-10-20T12:27:35.493Z,99256.48
2017-10-20T12:30:01.824Z,99255.54
2017-10-20T12:32:28.114Z,99253.20
2017-10-20T12:34:54.414Z,99250.07
2017-10-20T12:37:20.762Z,99246.75
2017-10-20T12:39:47.096Z,99246.42
2017-10-20T12:42:13.403Z,99249.63
2017-10-20T12:44:39.733Z,99251.16
2017-10-20T12:47:06.063Z,99248.30
2017-10-20T12:49:32.400Z,99249.73
2017-10-20T12:51:58.713Z,99248.47
2017-10-20T12:54:25.043Z,99252.09
2017-10-20T12:56:51.350Z,99246.66
2017-10-20T12:59:17.638Z,99250.75
2017-10-20T13:01:43.921Z,99241.88
2017-10-20T13:04:10.184Z,99243.95
2017-10-20T13:06:36.431Z,99249.48
2017-10-20T13:09:02.702Z,99248.41
2017-10-20T13:11:28.949Z,99239.75
2017-10-20T13:13:55.172Z,99244.57
2017-10-20T13:16:21.503Z,99240.20
2017-10-20T13:18:47.740Z,99245.23
2017-10-20T13:21:14.019Z,99243.28
2017-10-20T13:23:40.246Z,99242.59
2017-10-20T13:26:06.493Z,99248.45
2017-10-20T13:28:32.719Z,99241.67
2017-10-20T13:30:59.036Z,99240.82
2017-10-20T13:33:25.329Z,99242.03
2017-10-20T13:35:51.609Z,99236.97
2017-10-20T13:38:17.982Z,99243.05
2017-10-20T13:40:44.258Z,99246.53
2017-10-20T13:43:10.520Z,99241.75
2017-10-20T13:45:36.785Z,99235.77
2017-10-20T13:48:03.127Z,99240.13
2017-10-20T13:50:29.386Z,99239.03
2017-10-20T13:52:55.615Z,99232.16
2017-10-20T13:55:21.847Z,99234.48
2017-10-20T13:57:48.163Z,99230.04
2017-10-20T14:00:14.401Z,99227.30
2017-10-20T14:02:40.642Z,99227.30
2017-10-20T14:05:06.966Z,99226.83
2017-10-20T14:07:33.226Z,99228.39
2017-10-20T14:09:59.483Z,99227.33
2017-10-20T14:12:25.847Z,99234.06
2017-10-20T14:14:52.112Z,99233.84
2017-10-20T14:17:18.386Z,99242.53
2017-10-20T14:19:44.625Z,99233.96
2017-10-20T14:22:10.874Z,99236.30
2017-10-20T14:24:37.109Z,99237.27
2017-10-20T14:27:03.354Z,99231.47
2017-10-20T14:29:29.580Z,99235.73
2017-10-20T14:31:55.816Z,99241.31
2017-10-20T14:34:22.099Z,99238.37
2017-10-20T14:36:48.343Z,99242.00
2017-10-20T14:39:14.576Z,99249.09
2017-10-20T14:41:40.841Z,99244.78
2017-10-20T14:44:07.062Z,99245.79
2017-10-20T14:46:33.362Z,99247.01
2017-10-20T14:48:59.620Z,99245.73
2017-10-20T14:51:25.918Z,99242.59
2017-10-20T14:53:52.180Z,99249.00
2017-10-20T14:56:18.406Z,99250.09
2017-10-20T14:58:44.698Z,99247.73
2017-10-20T15:01:10.956Z,99252.63
2017-10-20T15:03:37.299Z,99249.41
2017-10-20T15:06:04.205Z,99256.23
2017-10-20T15:08:30.466Z,99255.28
2017-10-20T15:10:56.791Z,99261.30
2017-10-20T15:13:23.193Z,99261.62
2017-10-20T15:15:49.481Z,99261.14
2017-10-20T15:18:15.728Z,99267.34
2017-10-20T15:20:42.104Z,99267.60
2017-10-20T15:23:08.493Z,99273.36
2017-10-20T15:25:34.791Z,99268.57
2017-10-20T15:28:01.158Z,99272.45
2017-10-20T15:30:27.461Z,99274.10
2017-10-20T15:32:53.820Z,99274.43
2017-10-20T15:35:20.156Z,99277.34
2017-10-20T15:37:46.577Z,99281.14
2017-10-20T15:40:12.911Z,99290.84
2017-10-20T15:42:39.220Z,99290.36
2017-10-20T15:45:05.490Z,99293.44
2017-10-20T15:47:31.794Z,99294.56
2017-10-20T15:49:58.090Z,99294.45
2017-10-20T15:52:24.373Z,99300.34
2017-10-20T15:54:50.697Z,99299.87
2017-10-20T15:57:16.948Z,99303.59
2017-10-20T15:59:43.211Z,99310.73
2017-10-20T16:02:09.500Z,99309.69
2017-10-20T16:04:35.756Z,99315.10
2017-10-20T16:07:02.032Z,99319.50
2017-10-20T16:09:28.309Z,99325.81
2017-10-20T16:11:54.556Z,99324.28
2017-10-20T16:14:20.882Z,99327.69
2017-10-20T16:16:47.128Z,99330.70
2017-10-20T16:19:13.385Z,99334.08
2017-10-20T16:21:39.630Z,99334.70
2017-10-20T16:24:05.873Z,99337.96
2017-10-20T16:26:32.157Z,99340.16
2017-10-20T16:28:58.445Z,99340.02
2017-10-20T16:31:24.702Z,99335.95
2017-10-20T16:33:50.942Z,99341.08
2017-10-20T16:36:17.240Z,99343.57
2017-10-20T16:38:43.568Z,99346.20
2017-10-20T16:41:09.926Z,99342.38
2017-10-20T16:43:36.174Z,99344.21
2017-10-20T16:46:02.437Z,99349.08
2017-10-20T16:48:28.721Z,99349.09
2017-10-20T16:50:55.009Z,99348.27
2017-10-20T16:53:21.273Z,99354.45
2017-10-20T16:55:47.554Z,99357.27
2017-10-20T16:58:13.845Z,99358.94
2017-10-20T17:00:40.110Z,99358.09
2017-10-20T17:03:06.437Z,99364.70
2017-10-20T17:05:32.692Z,99362.52
2017-10-20T17:07:59.021Z,99362.23
2017-10-20T17:10:25.284Z,99369.12
2017-10-20T17:12:51.546Z,99368.95
2017-10-20T17:15:17.870Z,99367.08
2017-10-20T17:17:44.227Z,99370.03
2017-10-20T17:20:10.475Z,99369.88
2017-10-20T17:22:36.733Z,99371.52
2017-10-20T17:25:03.093Z,99370.33
2017-10-20T17:27:29.398Z,99372.91
2017-10-20T17:29:55.640Z,99377.11
2017-10-20T17:32:21.905Z,99379.92
2017-10-20T17:34:48.200Z,99373.80
2017-10-20T17:37:14.501Z,99375.48
2017-10-20T17:39:40.756Z,99376.66
2017-10-20T17:42:07.046Z,99383.84
2017-10-20T17:44:33.326Z,99375.39
2017-10-20T17:46:59.575Z,99375.70
2017-10-20T17:49:26.772Z,99374.98
2017-10-20T17:51:53.092Z,99378.35
2017-10-20T17:54:19.351Z,99381.42
2017-10-20T17:56:45.645Z,99387.50
2017-10-20T17:59:11.900Z,99385.91
2017-10-20T18:01:38.187Z,99386.93
2017-10-20T18:04:04.444Z,99390.23
2017-10-20T18:06:30.743Z,99389.95
2017-10-20T18:08:57.011Z,99388.20
2017-10-20T18:11:23.267Z,99392.52
2017-10-20T18:13:49.566Z,99390.69
2017-10-20T18:16:15.814Z,99399.36
2017-10-20T18:18:42.096Z,99397.35
2017-10-20T18:21:08.431Z,99394.02
2017-10-20T18:23:34.749Z,99396.05
2017-10-20T18:26:01.048Z,99395.55
2017-10-20T18:28:27.362Z,99396.61
2017-10-20T18:30:53.608Z,99394.08
2017-10-20T18:33:19.862Z,99399.33
2017-10-20T18:35:46.105Z,99400.50
2017-10-20T18:38:12.413Z,99395.52
2017-10-20T18:40:38.709Z,99402.41
2017-10-20T18:43:04.964Z,99403.72
2017-10-20T18:45:31.281Z,99403.41
2017-10-20T18:47:58.372Z,99406.08
2017-10-20T18:50:24.773Z,99399.79
2017-10-20T18:52:51.058Z,99405.92
2017-10-20T18:55:17.305Z,99410.80
2017-10-20T18:57:43.558Z,99412.23
2017-10-20T19:00:09.827Z,99411.11
2017-10-20T19:02:36.139Z,99415.59
2017-10-20T19:05:02.412Z,99417.20
2017-10-20T19:07:28.667Z,99419.69
2017-10-20T19:09:54.960Z,99418.79
2017-10-20T19:12:21.239Z,99421.92
2017-10-20T19:14:47.554Z,99421.37
2017-10-20T19:17:13.821Z,99422.70
2017-10-20T19:19:40.105Z,99425.66
2017-10-20T19:22:06.327Z,99425.17
2017-10-20T19:24:32.558Z,99424.33
2017-10-20T19:26:58.844Z,99426.80
2017-10-20T19:29:25.129Z,99422.76
2017-10-20T19:31:51.402Z,99431.22
2017-10-20T19:34:17.680Z,99419.22
2017-10-20T19:36:47.836Z,99424.69
2017-10-20T19:39:14.162Z,99428.59
2017-10-20T19:41:40.429Z,99426.83
2017-10-20T19:44:06.666Z,99431.64
2017-10-20T19:46:32.928Z,99432.50
2017-10-20T19:48:59.187Z,99426.45
2017-10-20T19:51:25.474Z,99431.27
2017-10-20T19:53:52.314Z,99426.77
2017-10-20T19:56:18.585Z,99428.71
2017-10-20T19:58:45.794Z,99429.55
2017-10-20T20:01:12.051Z,99434.66
2017-10-20T20:03:38.297Z,99441.04
2017-10-20T20:06:04.588Z,99437.25
2017-10-20T20:08:30.827Z,99435.91
2017-10-20T20:10:57.251Z,99436.03
2017-10-20T20:13:23.543Z,99433.73
2017-10-20T20:15:49.804Z,99435.18
2017-10-20T20:18:16.044Z,99440.42
2017-10-20T20:20:42.292Z,99435.67
2017-10-20T20:23:08.619Z,99440.72
2017-10-20T20:25:34.864Z,99434.52
2017-10-20T20:28:01.171Z,99437.08
2017-10-20T20:30:27.440Z,99435.83
2017-10-20T20:32:53.689Z,99441.56
2017-10-20T20:35:20.018Z,99436.31
2017-10-20T20:37:46.262Z,99435.42
2017-10-20T20:40:12.500Z,99440.39
2017-10-20T20:42:38.748Z,99439.38
2017-10-20T20:45:05.026Z,99441.25
2017-10-20T20:47:31.338Z,99442.95
2017-10-20T20:49:57.583Z,99441.69
2017-10-20T20:52:24.460Z,99437.71
2017-10-20T20:54:50.737Z,99439.16
2017-10-20T20:57:16.951Z,99444.58
2017-10-20T20:59:43.235Z,99439.30
2017-10-20T21:02:09.484Z,99436.12
2017-10-20T21:04:35.748Z,99443.75
2017-10-20T21:07:02.039Z,99443.14
2017-10-20T21:09:29.290Z,99442.78
2017-10-20T21:11:55.534Z,99440.91
2017-10-20T21:14:21.787Z,99435.39
2017-10-20T21:16:48.042Z,99435.20
2017-10-20T21:19:14.311Z,99436.30
2017-10-20T21:21:40.570Z,99433.22
2017-10-20T21:24:07.692Z,99430.25
2017-10-20T21:26:34.010Z,99439.66
2017-10-20T21:29:00.250Z,99439.11
2017-10-20T21:31:26.521Z,99434.36
2017-10-20T21:33:52.746Z,99443.58
2017-10-20T21:36:18.989Z,99436.16
2017-10-20T21:38:45.228Z,99436.78
2017-10-20T21:41:11.505Z,99431.51
2017-10-20T21:43:37.771Z,99433.73
2017-10-20T21:46:04.002Z,99426.47
2017-10-20T21:48:30.228Z,99429.17
2017-10-20T21:50:56.480Z,99425.22
2017-10-20T21:53:22.729Z,99427.77
2017-10-20T21:55:48.999Z,99426.23
2017-10-20T21:58:15.222Z,99429.96
2017-10-20T22:00:41.478Z,99432.48
2017-10-20T22:03:07.691Z,99430.78
2017-10-20T22:05:33.942Z,99429.26
2017-10-20T22:08:00.220Z,99429.06
2017-10-20T22:10:26.433Z,99430.52
2017-10-20T22:12:52.657Z,99433.20
2017-10-20T22:15:18.891Z,99435.03
2017-10-20T22:17:45.135Z,99434.47
2017-10-20T22:20:11.402Z,99434.03
2017-10-20T22:22:37.649Z,99439.53
2017-10-20T22:25:03.885Z,99442.08
2017-10-20T22:27:30.123Z,99436.55
2017-10-20T22:29:56.407Z,99440.23
2017-10-20T22:32:22.666Z,99443.81
2017-10-20T22:34:48.907Z,99438.34
2017-10-20T22:37:15.154Z,99442.39
2017-10-20T22:39:41.392Z,99443.05
2017-10-20T22:42:07.622Z,99440.97
2017-10-20T22:44:33.878Z,99435.66
2017-10-20T22:47:00.124Z,99439.17
2017-10-20T22:49:26.359Z,99438.23
2017-10-20T22:51:52.596Z,99438.80
2017-10-20T22:54:18.841Z,99440.34
2017-10-20T22:56:45.117Z,99443.52
2017-10-20T22:59:11.336Z,99443.23
2017-10-20T23:01:37.555Z,99442.99
2017-10-20T23:04:03.804Z,99442.99
2017-10-20T23:06:30.060Z,99445.45
2017-10-20T23:08:56.421Z,99441.17
2017-10-20T23:11:22.654Z,99445.11
2017-10-20T23:13:48.875Z,99447.40
2017-10-20T23:16:15.096Z,99445.77
2017-10-20T23:18:41.320Z,99443.45
2017-10-20T23:21:07.591Z,99447.58
2017-10-20T23:23:33.829Z,99447.48
2017-10-20T23:26:00.072Z,99447.03
2017-10-20T23:28:26.398Z,99442.73
2017-10-20T23:30:52.634Z,99440.62
2017-10-20T23:33:18.959Z,99446.48
2017-10-20T23:35:45.292Z,99438.63
2017-10-20T23:38:11.623Z,99440.56
2017-10-20T23:40:37.952Z,99442.66
2017-10-20T23:43:04.270Z,99445.28
2017-10-20T23:45:30.615Z,99447.52
2017-10-20T23:47:56.930Z,99442.88
2017-10-20T23:50:23.179Z,99440.30
2017-10-20T23:52:49.522Z,99442.88
2017-10-20T23:55:15.848Z,99438.99
2017-10-20T23:57:42.184Z,99441.14
